• Join FlightAware (Why Join?)
  • Login
  • US Flag 
05:01PM EST


 

Airport Tracker/Info


-or-


 

Live Flight TrackerFlight Track Log ✈ SWA1542 ✈ 08-Mar-2014 ✈ KMDW - KPHX

Flight Track Log - Related Links

Times and Time Zones

All times are in EST time to prevent confusion due to time zone crossing. See the SWA1542 flight status page for this flight to view local times or setup timezone preferences in your user account.

Time Position Orientation Groundspeed Altitude Reporting Facility
EST Latitude Longitude Course Direction KTS MPH feet Rate Location/Type
10:22PM 41.7833 -87.8333 241° Southwest 220 253 3,700  Level Chicago TRACON
10:23PM 41.7400 -87.9397 241° Southwest 242 278 8,000 3,180 Climbing Chicago Center
10:24PM 41.7383 -88.0333 269° West 257 296 11,100 2,460 Climbing Chicago Center
10:25PM 41.7464 -88.1322 276° West 267 307 13,100 1,800 Climbing Chicago Center
10:26PM 41.7564 -88.2569 276° West 320 368 14,800 1,500 Climbing Chicago Center
10:27PM 41.7650 -88.3828 275° West 339 390 16,200 1,680 Climbing Chicago Center
10:28PM 41.7750 -88.5147 276° West 350 403 18,200 1,980 Climbing Chicago Center
10:29PM 41.7850 -88.6508 276° West 365 420 20,300 1,920 Climbing Chicago Center
10:31PM 41.7944 -88.7972 275° West 391 450 22,200 1,800 Climbing Chicago Center
10:32PM 41.7778 -88.9533 262° West 426 490 24,000 1,740 Climbing Chicago Center
10:33PM 41.7561 -89.1117 260° West 433 498 25,800 1,680 Climbing Chicago Center
10:34PM 41.7347 -89.2764 260° West 448 516 27,400 1,500 Climbing Chicago Center
10:35PM 41.7125 -89.4417 260° West 453 521 28,900 1,680 Climbing Chicago Center
10:36PM 41.6892 -89.6139 260° West 453 521 30,900 1,500 Climbing Chicago Center
10:37PM 41.6592 -89.7711 256° West 436 502 32,000 840 Climbing Chicago Center
10:38PM 41.6111 -89.9225 247° West 440 506 32,700 1,500 Climbing Chicago Center
10:39PM 41.5644 -90.0669 247° West 426 490 35,100 1,560 Climbing Chicago Center
10:40PM 41.5203 -90.2047 247° West 408 470 35,900 720 Climbing Chicago Center
10:41PM 41.4739 -90.3461 246° West 415 478 36,600 600 Climbing Chicago Center
10:42PM 41.4275 -90.4878 246° West 418 481 37,200 600 Climbing Chicago Center
10:43PM 41.3806 -90.6319 247° West 424 488 37,900 360 Climbing Chicago Center
10:44PM 41.3308 -90.7789 246° West 433 498 38,000  Climbing Chicago Center
10:45PM 41.2831 -90.9219 246° West 429 494 38,000  Level Chicago Center
10:46PM 41.2353 -91.0661 246° West 427 491 38,000  Level Chicago Center
10:47PM 41.1772 -91.2367 246° West 423 487 38,000  Level Chicago Center
10:48PM 41.1289 -91.3786 246° West 423 487 38,000  Level Chicago Center
10:49PM 41.0811 -91.5211 246° West 424 488 38,000  Level Chicago Center
10:50PM 41.0331 -91.6614 246° West 421 484 38,000  Level Chicago Center
10:51PM 40.9867 -91.7961 246° West 419 482 38,000  Level Chicago Center
10:52PM 40.9389 -91.9342 245° Southwest 417 480 38,000  Level Chicago Center
10:53PM 40.8906 -92.0736 245° Southwest 420 483 38,000  Level Chicago Center
10:54PM 40.8419 -92.2103 245° Southwest 418 481 38,000  Level Chicago Center
10:55PM 40.7939 -92.3486 245° Southwest 418 481 38,000  Level Chicago Center
10:56PM 40.7453 -92.4875 245° Southwest 420 483 38,000  Level Chicago Center
10:57PM 40.6867 -92.6536 245° Southwest 423 487 38,000  Level Chicago Center
10:58PM 40.6361 -92.7928 244° Southwest 426 490 38,000  Level Chicago Center
10:59PM 40.5867 -92.9306 245° Southwest 426 490 38,000  Level Chicago Center
11:00PM 40.5375 -93.0697 245° Southwest 424 488 38,000  Level Chicago Center
11:01PM 40.4875 -93.2083 245° Southwest 426 490 38,000  Level Chicago Center
11:02PM 40.4386 -93.3464 245° Southwest 423 487 38,000  Level Chicago Center
11:03PM 40.4003 -93.4906 251° West 423 487 38,000  Level Chicago Center
11:04PM 40.3608 -93.6328 250° West 421 484 38,000  Level Chicago Center
11:05PM 40.3233 -93.7742 251° West 416 479 38,000  Level Chicago Center
11:06PM 40.2867 -93.9169 251° West 416 479 38,000  Level Chicago Center
11:07PM 40.2492 -94.0586 251° West 415 478 38,000  Level Chicago Center
11:08PM 40.2111 -94.2011 251° West 417 480 38,000  Level Chicago Center
11:09PM 40.1733 -94.3433 251° West 416 479 38,000  Level Chicago Center
11:10PM 40.1108 -94.5733 251° West 418 481 38,000  Level Kansas City Center
11:11PM 40.0753 -94.7114 251° West 418 481 38,000  Level Kansas City Center
11:12PM 40.0311 -94.8736 250° West 423 487 38,000  Level Kansas City Center
11:13PM 39.9925 -95.0122 250° West 425 489 38,000  Level Kansas City Center
11:14PM 39.9550 -95.1536 251° West 429 494 38,000  Level Kansas City Center
11:15PM 39.9094 -95.3172 250° West 430 495 38,000  Level Kansas City Center
11:16PM 39.8714 -95.4561 250° West 430 495 38,000  Level Kansas City Center
11:17PM 39.8314 -95.5964 250° West 431 496 38,000  Level Kansas City Center
11:18PM 39.7856 -95.7600 250° West 431 496 38,000  Level Kansas City Center
11:19PM 39.7456 -95.9014 250° West 435 501 38,000  Level Kansas City Center
11:20PM 39.7056 -96.0411 250° West 434 499 38,000  Level Kansas City Center
11:22PM 39.6597 -96.2031 250° West 433 498 38,000  Level Kansas City Center
11:23PM 39.6186 -96.3433 249° West 433 498 38,000  Level Kansas City Center
11:24PM 39.5786 -96.4822 250° West 433 498 38,000  Level Kansas City Center
11:25PM 39.5319 -96.6444 250° West 430 495 38,000  Level Kansas City Center
11:26PM 39.4889 -96.7828 248° West 430 495 38,000  Level Kansas City Center
11:27PM 39.4508 -96.9206 250° West 430 495 38,000  Level Kansas City Center
11:28PM 39.4017 -97.0806 248° West 430 495 38,000  Level Kansas City Center
11:29PM 39.3600 -97.2208 249° West 431 496 38,000  Level Kansas City Center
11:30PM 39.3186 -97.3594 249° West 432 497 38,000  Level Kansas City Center
11:31PM 39.2686 -97.5278 249° West 433 498 38,000  Level Kansas City Center
11:32PM 39.2272 -97.6661 249° West 443 510 38,000  Level Kansas City Center
11:33PM 39.1842 -97.8053 248° West 441 507 38,000  Level Kansas City Center
11:34PM 39.1397 -97.9556 249° West 443 510 38,000  Level Kansas City Center
11:35PM 39.0939 -98.1039 248° West 445 512 38,000  Level Kansas City Center
11:36PM 39.0472 -98.2525 248° West 446 513 38,000  Level Kansas City Center
11:37PM 39.0014 -98.4006 248° West 447 514 38,000  Level Kansas City Center
11:38PM 38.9553 -98.5489 248° West 448 516 38,000  Level Kansas City Center
11:39PM 38.9086 -98.6958 248° West 448 516 38,000  Level Kansas City Center
11:40PM 38.8525 -98.8733 248° West 449 517 38,000  Level Kansas City Center
11:41PM 38.8061 -99.0214 248° West 449 517 38,000  Level Kansas City Center
11:42PM 38.7589 -99.1692 248° West 449 517 38,000  Level Kansas City Center
11:43PM 38.7131 -99.3147 248° West 447 514 38,000  Level Kansas City Center
11:44PM 38.6653 -99.4636 248° West 448 516 38,000  Level Kansas City Center
11:45PM 38.6194 -99.6028 247° West 448 516 38,000  Level Kansas City Center
11:46PM 38.5653 -99.7681 247° West 450 518 38,000  Level Kansas City Center
11:47PM 38.5194 -99.9114 248° West 452 520 38,000  Level Kansas City Center
11:48PM 38.4714 -100.0533 247° West 454 522 38,000  Level Kansas City Center
11:49PM 38.4158 -100.2200 247° West 454 522 38,000  Level Kansas City Center
11:50PM 38.3686 -100.3625 247° West 455 524 38,000  Level Kansas City Center
11:51PM 38.3197 -100.5075 247° West 462 532 38,000  Level Kansas City Center
11:52PM 38.2636 -100.6728 247° West 462 532 38,000  Level Kansas City Center
11:53PM 38.2153 -100.8156 247° West 462 532 38,000  Level Kansas City Center
11:54PM 38.1678 -100.9567 247° West 461 531 38,000  Level Kansas City Center
11:55PM 38.1111 -101.1206 246° West 460 529 38,000  Level Kansas City Center
11:56PM 38.0622 -101.2619 246° West 460 529 38,000  Level Kansas City Center
11:57PM 38.0131 -101.4044 246° West 461 531 38,000  Level Kansas City Center
11:58PM 37.9567 -101.5672 246° West 460 529 38,000  Level Kansas City Center
11:59PM 37.9072 -101.7100 246° West 460 529 38,000  Level Kansas City Center
12:00AM 37.8575 -101.8517 246° West 460 529 38,000  Level Kansas City Center
12:01AM 37.7983 -102.0172 246° West 461 531 38,000  Level Kansas City Center
12:02AM 37.7492 -102.1581 246° West 461 531 38,000  Level Kansas City Center
12:03AM 37.6986 -102.3000 246° West 461 531 38,000  Level Kansas City Center
12:04AM 37.6556 -102.4175 245° Southwest 461 531 38,000  Level Denver Center
12:05AM 37.5900 -102.6075 247° West 457 526 38,000  Level Denver Center
12:06AM 37.5386 -102.7467 245° Southwest 456 525 38,000  Level Denver Center
12:07AM 37.4894 -102.8861 246° West 454 522 38,000  Level Denver Center
12:08AM 37.4297 -103.0478 245° Southwest 454 522 38,000  Level Denver Center
12:09AM 37.3536 -103.2492 245° Southwest 456 525 38,000  Level Albuquerque Center
12:10AM 37.3014 -103.3881 245° Southwest 459 528 38,000  Level Albuquerque Center
12:11AM 37.2672 -103.4886 247° West 456 525 38,000  Level Denver Center
12:12AM 37.2142 -103.6289 245° Southwest 458 527 38,000  Level Denver Center
12:13AM 37.1631 -103.7683 245° Southwest 458 527 38,000  Level Denver Center
12:14AM 37.1106 -103.9083 245° Southwest 458 527 38,000  Level Denver Center
12:15AM 37.0492 -104.0697 245° Southwest 457 526 38,000  Level Denver Center
12:16AM 36.9961 -104.2078 244° Southwest 457 526 38,000  Level Denver Center
12:17AM 36.9433 -104.3486 245° Southwest 464 534 38,000  Level Denver Center
12:18AM 36.8908 -104.4883 245° Southwest 464 534 38,000  Level Denver Center
12:19AM 36.8258 -104.6544 244° Southwest 463 533 38,000  Level Denver Center
12:20AM 36.7747 -104.7886 245° Southwest 462 532 38,000  Level Denver Center
12:21AM 36.7200 -104.9256 244° Southwest 462 532 38,000  Level Denver Center
12:22AM 36.6639 -105.0689 244° Southwest 462 532 38,000  Level Denver Center
12:23AM 36.6033 -105.2236 244° Southwest 462 532 38,000  Level Denver Center
12:24AM 36.5497 -105.3606 244° Southwest 462 532 38,000  Level Denver Center
12:25AM 36.4856 -105.5214 244° Southwest 463 533 38,000  Level Denver Center
12:26AM 36.4375 -105.6422 244° Southwest 463 533 38,000  Level Denver Center
12:28AM 36.3522 -105.8586 244° Southwest 467 537 38,000  Level Albuquerque Center
12:29AM 36.2944 -106.0022 244° Southwest 468 539 38,000  Level Albuquerque Center
12:30AM 36.2372 -106.1467 244° Southwest 469 540 38,000  Level Albuquerque Center
12:31AM 36.1667 -106.3186 243° Southwest 470 541 38,000  Level Albuquerque Center
12:32AM 36.1092 -106.4636 244° Southwest 472 543 38,000  Level Albuquerque Center
12:33AM 36.0514 -106.6025 243° Southwest 470 541 38,000  Level Albuquerque Center
12:34AM 35.9956 -106.7406 243° Southwest 470 541 38,000  Level Albuquerque Center
12:35AM 35.9289 -106.9017 243° Southwest 472 543 38,000  Level Albuquerque Center
12:36AM 35.8697 -107.0414 242° Southwest 476 548 38,000  Level Albuquerque Center
12:37AM 35.8119 -107.1797 243° Southwest 476 548 38,000  Level Albuquerque Center
12:38AM 35.7458 -107.3417 243° Southwest 475 547 38,000  Level Albuquerque Center
12:39AM 35.6875 -107.4817 243° Southwest 477 549 38,000  Level Albuquerque Center
12:40AM 35.6283 -107.6217 243° Southwest 480 552 38,000  Level Albuquerque Center
12:41AM 35.5694 -107.7622 243° Southwest 482 555 38,000  Level Albuquerque Center
12:42AM 35.4992 -107.9258 242° Southwest 483 556 38,000  Level Albuquerque Center
12:43AM 35.4400 -108.0647 242° Southwest 480 552 38,000  Level Albuquerque Center
12:44AM 35.3806 -108.2036 242° Southwest 479 551 38,000  Level Albuquerque Center
12:45AM 35.3117 -108.3669 243° Southwest 481 554 38,000  Level Albuquerque Center
12:46AM 35.2511 -108.5056 242° Southwest 481 554 38,000  Level Albuquerque Center
12:47AM 35.1908 -108.6442 242° Southwest 481 554 38,000  Level Albuquerque Center
12:48AM 35.1297 -108.7831 242° Southwest 482 555 38,000  Level Albuquerque Center
12:49AM 35.0594 -108.9439 242° Southwest 480 552 38,000  Level Albuquerque Center
12:50AM 34.9983 -109.0808 241° Southwest 480 552 38,000  Level Albuquerque Center
12:51AM 34.9408 -109.2200 243° Southwest 479 551 38,000  Level Albuquerque Center
12:52AM 34.8817 -109.3867 247° West 478 550 38,000  Level Albuquerque Center
12:53AM 34.8283 -109.5314 246° West 484 557 38,000  Level Albuquerque Center
12:54AM 34.7681 -109.6681 242° Southwest 482 555 38,000  Level Albuquerque Center
12:55AM 34.7008 -109.8017 239° Southwest 483 556 38,000  Level Albuquerque Center
12:56AM 34.6247 -109.9547 239° Southwest 477 549 38,000 -780 Level Albuquerque Center
12:57AM 34.5592 -110.0850 239° Southwest 473 544 36,500 -2,160 Descending Albuquerque Center
12:58AM 34.4922 -110.2178 239° Southwest 477 549 33,700 -2,940 Descending Albuquerque Center
12:59AM 34.4067 -110.3850 238° Southwest 511 588 30,600 -2,760 Descending Albuquerque Center
01:00AM 34.3325 -110.5397 240° Southwest 535 616 28,200 -2,040 Descending Albuquerque Center
01:01AM 34.2528 -110.6869 237° Southwest 518 596 26,500 -1,800 Descending Albuquerque Center
01:02AM 34.1800 -110.8275 238° Southwest 511 588 24,600 -1,800 Descending Albuquerque Center
01:03AM 34.1097 -110.9653 238° Southwest 493 567 22,900 -1,920 Descending Albuquerque Center
01:04AM 34.0403 -111.0983 238° Southwest 476 548 20,800 -2,100 Descending Albuquerque Center
01:05AM 33.9747 -111.2267 238° Southwest 457 526 18,600 -2,100 Descending Albuquerque Center
01:06AM 33.9111 -111.3483 238° Southwest 434 499 16,600 -1,740 Descending Albuquerque Center
01:07AM 33.8517 -111.4617 238° Southwest 399 459 15,100 -1,500 Descending Albuquerque Center
01:08AM 33.7989 -111.5617 238° Southwest 355 409 13,600 -1,800 Descending Albuquerque Center
01:09AM 33.7489 -111.6547 237° Southwest 332 382 11,500 -1,740 Descending Albuquerque Center
01:10AM 33.6997 -111.7475 238° Southwest 328 377 10,100 -780 Descending Albuquerque Center
01:11AM 33.6517 -111.8342 236° Southwest 312 359 10,000 -600 Descending Albuquerque Center
01:12AM 33.6167 -111.9000 237° Southwest 307 353 9,100 -1,080 Descending Phoenix TRACON
01:13AM 33.5667 -112.0000 239° Southwest 274 315 8,100 -1,080 Descending Phoenix TRACON
01:14AM 33.5333 -112.0667 239° Southwest 277 319 6,900 -1,020 Descending Phoenix TRACON
01:15AM 33.5333 -112.1500 270° West 266 306 6,100 -900 Descending Phoenix TRACON
01:16AM 33.5167 -112.2333 257° West 252 290 5,300 -1,200 Descending Phoenix TRACON
01:17AM 33.4667 -112.2667 209° Southwest 220 253 3,900 -1,080 Descending Phoenix TRACON
01:18AM 33.4333 -112.1833 116° Southeast 168 193 2,900 -540 Descending Phoenix TRACON
01:19AM 33.4333 -112.1333 90° East 161 185 2,700 -480 Descending Phoenix TRACON
01:20AM 33.4333 -112.0833 90° East 134 154 2,000 -660 Descending Phoenix TRACON
01:21AM 33.4333 -112.0500 90° East 132 152 1,400 -720 Descending Phoenix TRACON